^^
Station Historical Data
Daily Summary for April 23, 2017 Units:  Metric    English   Both
« Previous Day
Next Day »
Daily Weekly Monthly Yearly Custom
  High: Low: Average:
Temperature: 26.4 °C 20.5 °C 22.9 °C
Dew Point: 13.7 °C 8.7 °C 10.1 °C
Humidity: 57% 34% 45%
Wind Speed: 22.7km/h 0km/h 5.5km/h
Wind Gust: 30.6km/h - -
Wind- - SW
Pressure: 1014.8 hPa 1012.1 hPa -
Precipitation: 0 mm    
Historical Graphs
 
 
Tabular Data for April 23, 2017
Time Temperature Dew Point Pressure Wind Wind Speed Wind Gust Humidity Rainfall Rate (Hourly) solar Conditions
00:50 23.6 °C 10.3 °C 1013.4 hPa North 14.3 km/h 22.5 km/h 43% 0 mm 0.0 W/m2
01:00 23.5 °C 10.5 °C 1013.4 hPa North 13 km/h 20.9 km/h 44% 0 mm 0.0 W/m2
01:05 23.4 °C 10.5 °C 1013.4 hPa North 3.2 km/h 19.3 km/h 44% 0 mm 0.0 W/m2
01:10 23.3 °C 10.7 °C 1013.4 hPa Calm   17.7 km/h 45% 0 mm 0.0 W/m2
01:15 23.2 °C 10.9 °C 1013.4 hPa North 17.7 km/h 20.9 km/h 46% 0 mm 0.0 W/m2
01:20 23.1 °C 11.8 °C 1013.4 hPa North 7.9 km/h 25.7 km/h 49% 0 mm 0.0 W/m2
01:25 22.7 °C 13.7 °C 1013.4 hPa North 3.2 km/h 12.9 km/h 57% 0 mm 0.0 W/m2
01:30 22.2 °C 13.3 °C 1013.4 hPa North 11.1 km/h 12.9 km/h 57% 0 mm 0.0 W/m2
01:35 21.9 °C 12.5 °C 1013.4 hPa North 6.4 km/h 14.5 km/h 55% 0 mm 0.0 W/m2
01:45 22.1 °C 12.1 °C 1013.4 hPa North 11.1 km/h 14.5 km/h 53% 0 mm 0.0 W/m2
01:51 22.2 °C 11.9 °C 1013.4 hPa North 7.9 km/h 14.5 km/h 52% 0 mm 0.0 W/m2
01:57 22.2 °C 11.6 °C 1013.1 hPa Calm   11.3 km/h 51% 0 mm 0.0 W/m2
02:02 22.2 °C 11.6 °C 1013.4 hPa Calm   6.4 km/h 51% 0 mm 0.0 W/m2
02:12 22.2 °C 11.6 °C 1013.1 hPa Calm     51% 0 mm 0.0 W/m2
02:21 22.2 °C 11.6 °C 1013.1 hPa Calm   6.4 km/h 51% 0 mm 0.0 W/m2
02:26 22.2 °C 11.6 °C 1013.1 hPa Calm     51% 0 mm 0.0 W/m2
02:31 22.2 °C 11.3 °C 1013.1 hPa Calm   1.6 km/h 50% 0 mm 0.0 W/m2
02:36 22.2 °C 11.6 °C 1013.1 hPa Calm     51% 0 mm 0.0 W/m2
02:41 22.1 °C 11.5 °C 1013.1 hPa Calm     51% 0 mm 0.0 W/m2
02:46 22.2 °C 11.6 °C 1013.1 hPa Calm   8 km/h 51% 0 mm 0.0 W/m2
02:51 22.2 °C 11.3 °C 1012.8 hPa Calm     50% 0 mm 0.0 W/m2
02:56 22.2 °C 11.3 °C 1012.8 hPa Calm     50% 0 mm 0.0 W/m2
03:02 22.2 °C 11.3 °C 1012.8 hPa Calm     50% 0 mm 0.0 W/m2
03:08 22.1 °C 11.2 °C 1012.8 hPa Calm   1.6 km/h 50% 0 mm 0.0 W/m2
03:13 22.1 °C 11.2 °C 1012.8 hPa Calm   6.4 km/h 50% 0 mm 0.0 W/m2
03:18 22 °C 11.1 °C 1012.8 hPa Calm     50% 0 mm 0.0 W/m2
03:24 21.9 °C 11 °C 1012.8 hPa Calm     50% 0 mm 0.0 W/m2
03:29 21.9 °C 11 °C 1012.8 hPa Calm     50% 0 mm 0.0 W/m2
03:39 21.8 °C 10.9 °C 1012.8 hPa Calm     50% 0 mm 0.0 W/m2
03:49 21.7 °C 10.8 °C 1012.8 hPa Calm   6.4 km/h 50% 0 mm 0.0 W/m2
03:54 21.7 °C 10.8 °C 1012.8 hPa Calm   11.3 km/h 50% 0 mm 0.0 W/m2
03:59 21.8 °C 10.6 °C 1012.8 hPa Calm   11.3 km/h 49% 0 mm 0.0 W/m2
04:04 21.8 °C 10.6 °C 1012.8 hPa North 9.7 km/h 12.9 km/h 49% 0 mm 0.0 W/m2
04:09 21.8 °C 10.3 °C 1012.8 hPa North 1.4 km/h 12.9 km/h 48% 0 mm 0.0 W/m2
04:14 21.8 °C 10.3 °C 1012.8 hPa North 1.4 km/h 11.3 km/h 48% 0 mm 0.0 W/m2
04:19 21.8 °C 10.3 °C 1012.8 hPa Calm   11.3 km/h 48% 0 mm 0.0 W/m2
04:24 21.9 °C 10.1 °C 1012.8 hPa Calm     47% 0 mm 0.0 W/m2
04:30 21.9 °C 10.1 °C 1012.8 hPa Calm   11.3 km/h 47% 0 mm 0.0 W/m2
04:35 21.9 °C 9.8 °C 1013.1 hPa Calm   9.7 km/h 46% 0 mm 0.0 W/m2
04:40 21.8 °C 9.7 °C 1012.8 hPa Calm   11.3 km/h 46% 0 mm 0.0 W/m2
04:45 21.8 °C 9.7 °C 1012.8 hPa Calm   11.3 km/h 46% 0 mm 0.0 W/m2
04:50 21.8 °C 9.3 °C 1012.8 hPa North 6.4 km/h 14.5 km/h 45% 0 mm 0.0 W/m2
04:55 21.8 °C 9.3 °C 1013.1 hPa North 3.2 km/h 22.5 km/h 45% 0 mm 0.0 W/m2
05:00 21.8 °C 9.3 °C 1013.1 hPa North 6.4 km/h 14.5 km/h 45% 0 mm 0.0 W/m2
05:05 21.7 °C 9.6 °C 1013.1 hPa Calm   14.5 km/h 46% 0 mm 0.0 W/m2
05:10 21.7 °C 9.2 °C 1013.1 hPa Calm   12.9 km/h 45% 0 mm 0.0 W/m2
05:15 21.6 °C 9.5 °C 1013.1 hPa North 9.7 km/h 14.5 km/h 46% 0 mm 0.0 W/m2
05:25 21.6 °C 9.5 °C 1013.4 hPa North 1.4 km/h 17.7 km/h 46% 0 mm 0.0 W/m2
05:35 21.5 °C 9.4 °C 1013.4 hPa North 7.9 km/h 9.7 km/h 46% 0 mm 0.0 W/m2
05:40 21.4 °C 9.3 °C 1013.4 hPa North 9.7 km/h 19.3 km/h 46% 0 mm 0.0 W/m2
05:46 21.4 °C 9.3 °C 1013.4 hPa Calm   14.5 km/h 46% 0 mm 0.0 W/m2
05:51 21.4 °C 9.3 °C 1013.4 hPa North 3.2 km/h 14.5 km/h 46% 0 mm 0.0 W/m2
05:56 21.3 °C 9.5 °C 1013.4 hPa North 9.7 km/h 17.7 km/h 47% 0 mm 0.0 W/m2
06:01 21.3 °C 9.5 °C 1013.4 hPa North 19.5 km/h 19.5 km/h 47% 0 mm 0.0 W/m2
06:11 21.3 °C 9.2 °C 1013.4 hPa North 7.9 km/h 14.5 km/h 46% 0 mm 0.0 W/m2
06:16 21.3 °C 9.2 °C 1013.4 hPa Calm   11.3 km/h 46% 0 mm 0.0 W/m2
06:26 21.3 °C 9.2 °C 1013.4 hPa Calm     46% 0 mm 5.0 W/m2
06:32 21.3 °C 9.5 °C 1013.4 hPa Calm     47% 0 mm 19.0 W/m2
06:37 21.2 °C 9.4 °C 1013.4 hPa North 9.7 km/h 12.9 km/h 47% 0 mm 26.0 W/m2
06:42 21.2 °C 9.4 °C 1013.4 hPa North 6.4 km/h 12.9 km/h 47% 0 mm 35.0 W/m2
06:47 21.2 °C 9.4 °C 1013.4 hPa North 3.2 km/h 11.3 km/h 47% 0 mm 42.0 W/m2
06:57 21.3 °C 9.2 °C 1013.4 hPa Calm   19.3 km/h 46% 0 mm 53.0 W/m2
07:20 21.6 °C 9.5 °C 1013.4 hPa Calm     46% 0 mm 93.0 W/m2
07:33 21.7 °C 9.2 °C 1013.8 hPa Calm   6.4 km/h 45% 0 mm 69.0 W/m2
07:42 21.8 °C 9 °C 1014.1 hPa Calm   12.9 km/h 44% 0 mm 190.0 W/m2
07:58 22.1 °C 8.9 °C 1014.1 hPa North 11.1 km/h 11.3 km/h 43% 0 mm 107.0 W/m2
08:14 22.3 °C 9.1 °C 1014.1 hPa Calm   6.4 km/h 43% 0 mm 264.0 W/m2
08:24 23.3 °C 9.3 °C 1014.1 hPa North 11.1 km/h 14.5 km/h 41% 0 mm 399.0 W/m2
09:54 24.2 °C 9.4 °C 1014.4 hPa North 22.7 km/h 24.1 km/h 39% 0 mm 320.0 W/m2
10:12 24.3 °C 9.5 °C 1014.4 hPa North 14.3 km/h 22.5 km/h 39% 0 mm 244.0 W/m2
10:27 24.2 °C 9.4 °C 1014.1 hPa North 20.9 km/h 27.4 km/h 39% 0 mm 323.0 W/m2
10:35 24.3 °C 9.5 °C 1014.1 hPa NNE 13 km/h 27.4 km/h 39% 0 mm 353.0 W/m2
12:05 25.8 °C 9.6 °C 1013.4 hPa North 16.3 km/h 22.5 km/h 36% 0 mm 311.0 W/m2
12:15 25.4 °C 9.2 °C 1013.4 hPa North 6.4 km/h 22.5 km/h 36% 0 mm 265.0 W/m2
12:21 25.3 °C 9.2 °C 1013.1 hPa North 9.7 km/h 25.7 km/h 36% 0 mm 262.0 W/m2
12:27 25.4 °C 9.2 °C 1013.4 hPa North 19.5 km/h 29 km/h 36% 0 mm 255.0 W/m2
12:30 25.3 °C 9.2 °C 1013.1 hPa North 7.9 km/h 30.6 km/h 36% 0 mm 283.0 W/m2
12:44 25.3 °C 9.2 °C 1013.1 hPa North 22.7 km/h 27.4 km/h 36% 0 mm 278.0 W/m2
12:50 25.3 °C 9.2 °C 1013.1 hPa North 1.4 km/h 20.9 km/h 36% 0 mm 316.0 W/m2
13:04 25.9 °C 9.7 °C 1012.8 hPa North 1.4 km/h 20.9 km/h 36% 0 mm 860.0 W/m2
13:11 26.4 °C 9.7 °C 1012.8 hPa North 1.4 km/h 20.9 km/h 35% 0 mm 438.0 W/m2
14:05 26.1 °C 9.4 °C 1012.1 hPa North 9.7 km/h 22.5 km/h 35% 0 mm 202.0 W/m2
14:15 26.1 °C 9.4 °C 1012.1 hPa North 6.4 km/h 16.1 km/h 35% 0 mm 163.0 W/m2
14:20 26 °C 9.4 °C 1012.1 hPa North 6.4 km/h 17.7 km/h 35% 0 mm 156.0 W/m2
14:36 25.9 °C 8.8 °C 1012.1 hPa North 1.4 km/h 17.7 km/h 34% 0 mm 169.0 W/m2
14:45 25.7 °C 9.1 °C 1012.1 hPa North 7.9 km/h 19.3 km/h 35% 0 mm 165.0 W/m2
14:59 25.8 °C 8.7 °C 1012.1 hPa North 9.7 km/h 22.5 km/h 34% 0 mm 141.0 W/m2
15:06 25.7 °C 8.7 °C 1012.1 hPa North 11.1 km/h 27.4 km/h 34% 0 mm 102.0 W/m2
16:11 25.1 °C 9 °C 1012.1 hPa North 7.9 km/h 19.3 km/h 36% 0 mm 40.0 W/m2
16:23 25 °C 8.9 °C 1012.1 hPa North 13 km/h 22.5 km/h 36% 0 mm 44.0 W/m2
16:33 24.9 °C 9.2 °C 1012.4 hPa North 9.7 km/h 20.9 km/h 37% 0 mm 40.0 W/m2
16:38 24.9 °C 9.2 °C 1012.4 hPa North 11.1 km/h 19.3 km/h 37% 0 mm 33.0 W/m2
16:45 24.8 °C 9.1 °C 1012.4 hPa North 7.9 km/h 19.3 km/h 37% 0 mm 26.0 W/m2
16:51 24.7 °C 9.4 °C 1012.4 hPa North 14.3 km/h 20.9 km/h 38% 0 mm 16.0 W/m2
16:56 24.6 °C 9.7 °C 1012.4 hPa North 11.1 km/h 19.3 km/h 39% 0 mm 12.0 W/m2
17:06 24.4 °C 9.5 °C 1012.4 hPa North 7.9 km/h 11.3 km/h 39% 0 mm 5.0 W/m2
17:25 24.3 °C 10.2 °C 1012.8 hPa North 9.7 km/h 20.9 km/h 41% 0 mm 0.0 W/m2
17:31 24.1 °C 10 °C 1012.8 hPa North 13 km/h 17.7 km/h 41% 0 mm 0.0 W/m2
17:43 23.9 °C 9.8 °C 1012.8 hPa North 14.3 km/h 17.7 km/h 41% 0 mm 0.0 W/m2
17:47 23.9 °C 10.2 °C 1012.8 hPa North 9.7 km/h 14.5 km/h 42% 0 mm 0.0 W/m2
17:55 23.9 °C 9.8 °C 1012.8 hPa North 7.9 km/h 17.7 km/h 41% 0 mm 0.0 W/m2
18:03 23.8 °C 9.8 °C 1012.8 hPa North 11.1 km/h 20.9 km/h 41% 0 mm 0.0 W/m2
18:16 23.7 °C 9.7 °C 1013.1 hPa North 6.4 km/h 17.7 km/h 41% 0 mm 0.0 W/m2
18:28 23.6 °C 9.6 °C 1013.1 hPa North 13 km/h 17.7 km/h 41% 0 mm 0.0 W/m2
18:37 23.3 °C 9.7 °C 1013.1 hPa North 9.7 km/h 14.5 km/h 42% 0 mm 0.0 W/m2
18:58 23.2 °C 9.9 °C 1013.1 hPa Calm     43% 0 mm 0.0 W/m2
19:07 23 °C 9.7 °C 1013.4 hPa Calm     43% 0 mm 0.0 W/m2
19:23 22.9 °C 9.7 °C 1013.4 hPa Calm     43% 0 mm 0.0 W/m2
19:38 22.8 °C 9.9 °C 1013.4 hPa Calm   8 km/h 44% 0 mm 0.0 W/m2
19:54 22.7 °C 10.2 °C 1013.8 hPa Calm   11.3 km/h 45% 0 mm 0.0 W/m2
20:14 22.4 °C 10.2 °C 1014.1 hPa Calm     46% 0 mm 0.0 W/m2
20:30 22.1 °C 10.3 °C 1014.1 hPa Calm   8 km/h 47% 0 mm 0.0 W/m2
20:39 21.8 °C 10.3 °C 1014.4 hPa North 6.4 km/h 11.3 km/h 48% 0 mm 0.0 W/m2
20:59 21.4 °C 10.2 °C 1014.4 hPa North 7.9 km/h 11.3 km/h 49% 0 mm 0.0 W/m2
21:10 21.3 °C 10.2 °C 1014.4 hPa Calm   9.7 km/h 49% 0 mm 0.0 W/m2
21:22 20.9 °C 9.8 °C 1014.4 hPa North 3.2 km/h 8 km/h 49% 0 mm 0.0 W/m2
21:31 20.8 °C 9.7 °C 1014.8 hPa Calm   1.6 km/h 49% 0 mm 0.0 W/m2
21:38 20.7 °C 9.6 °C 1014.8 hPa Calm   6.4 km/h 49% 0 mm 0.0 W/m2
21:46 20.5 °C 9.4 °C 1014.8 hPa North 6.4 km/h 11.3 km/h 49% 0 mm 0.0 W/m2
Canyon Roadhouse, Fishriver Canyon, Namibia
Compliments of Weather Underground - 2.25 mb